createdAt,value
2019-03-16T00:02:49.327Z,1001.21
2019-03-16T00:07:44.744Z,1001.20
2019-03-16T00:12:40.613Z,1001.49
2019-03-16T00:17:37.009Z,1001.42
2019-03-16T00:22:32.972Z,1001.47
2019-03-16T00:27:29.294Z,1001.46
2019-03-16T00:32:25.697Z,1001.48
2019-03-16T00:37:22.627Z,1001.56
2019-03-16T00:42:17.934Z,1001.68
2019-03-16T00:47:13.629Z,1001.66
2019-03-16T00:52:10.793Z,1001.59
2019-03-16T00:57:07.470Z,1001.70
2019-03-16T01:02:02.721Z,1001.69
2019-03-16T01:06:58.145Z,1001.59
2019-03-16T01:11:54.116Z,1001.46
2019-03-16T01:16:49.709Z,1001.57
2019-03-16T01:21:46.408Z,1001.70
2019-03-16T01:26:41.590Z,1001.70
2019-03-16T01:31:37.319Z,1001.82
2019-03-16T01:36:33.061Z,1001.75
2019-03-16T01:41:29.336Z,1001.86
2019-03-16T01:46:25.303Z,1001.83
2019-03-16T01:51:21.333Z,1001.87
2019-03-16T01:56:17.066Z,1001.82
2019-03-16T02:01:12.782Z,1001.83
2019-03-16T02:06:08.425Z,1001.84
2019-03-16T02:11:04.659Z,1001.82
2019-03-16T02:16:10.229Z,1001.76
2019-03-16T02:21:00.709Z,1001.72
2019-03-16T02:25:56.089Z,1001.82
2019-03-16T02:30:51.713Z,1001.95
2019-03-16T02:35:48.473Z,1001.87
2019-03-16T02:40:45.062Z,1001.88
2019-03-16T02:45:40.447Z,1001.91
2019-03-16T02:50:36.242Z,1001.99
2019-03-16T02:55:32.123Z,1001.93
2019-03-16T03:00:29.448Z,1002.02
2019-03-16T03:05:24.859Z,1002.05
2019-03-16T03:10:21.373Z,1002.06
2019-03-16T03:15:17.837Z,1002.08
2019-03-16T03:20:13.105Z,1002.06
2019-03-16T03:25:09.712Z,1002.05
2019-03-16T03:30:05.797Z,1001.98
2019-03-16T03:35:01.819Z,1001.98
2019-03-16T03:39:58.335Z,1002.07
2019-03-16T03:44:53.794Z,1002.09
2019-03-16T03:49:50.030Z,1002.06
2019-03-16T03:54:45.656Z,1002.11
2019-03-16T03:59:41.265Z,1002.14
2019-03-16T04:04:38.189Z,1002.17
2019-03-16T04:09:34.971Z,1002.24
2019-03-16T04:14:30.396Z,1002.27
2019-03-16T04:19:26.114Z,1002.14
2019-03-16T04:24:21.602Z,1002.05
2019-03-16T04:29:17.911Z,1002.06
2019-03-16T04:34:28.101Z,1002.04
2019-03-16T04:39:13.833Z,1002.00
2019-03-16T04:44:09.434Z,1002.09
2019-03-16T04:49:05.363Z,1002.06
2019-03-16T04:54:01.180Z,1002.10
2019-03-16T04:58:56.666Z,1002.11
2019-03-16T05:03:53.676Z,1002.16
2019-03-16T05:08:48.871Z,1002.07
2019-03-16T05:13:44.647Z,1001.98
2019-03-16T05:18:41.063Z,1002.04
2019-03-16T05:23:36.721Z,1001.97
2019-03-16T05:28:32.555Z,1001.93
2019-03-16T05:33:28.214Z,1001.86
2019-03-16T05:38:24.044Z,1001.92
2019-03-16T05:43:19.767Z,1001.87
2019-03-16T05:48:15.499Z,1001.93
2019-03-16T05:53:11.097Z,1001.94
2019-03-16T05:58:06.763Z,1002.02
2019-03-16T06:03:02.428Z,1002.02
2019-03-16T06:07:58.183Z,1001.98
2019-03-16T06:12:53.996Z,1001.94
2019-03-16T06:17:49.472Z,1001.86
2019-03-16T06:22:45.240Z,1001.88
2019-03-16T06:27:41.809Z,1001.80
2019-03-16T06:32:37.362Z,1001.75
2019-03-16T06:37:33.359Z,1001.80
2019-03-16T06:42:29.044Z,1001.82
2019-03-16T06:47:25.875Z,1001.76
2019-03-16T06:52:21.889Z,1001.56
2019-03-16T06:57:17.514Z,1001.45
2019-03-16T07:02:13.852Z,1001.29
2019-03-16T07:07:09.475Z,1001.48
2019-03-16T07:12:05.175Z,1001.28
2019-03-16T07:17:02.411Z,1001.19
2019-03-16T07:21:58.178Z,1001.08
2019-03-16T07:26:53.934Z,1001.03
2019-03-16T07:31:49.799Z,1001.01
2019-03-16T07:36:45.470Z,1001.03
2019-03-16T07:41:41.235Z,1000.90
2019-03-16T07:46:37.132Z,1000.84
2019-03-16T07:51:32.828Z,1000.88
2019-03-16T07:56:28.359Z,1000.85
2019-03-16T08:01:25.036Z,1000.72
2019-03-16T08:06:20.962Z,1000.82
2019-03-16T08:11:16.633Z,1000.71
2019-03-16T08:16:12.531Z,1000.70
2019-03-16T08:21:09.384Z,1000.69
2019-03-16T08:26:05.031Z,1000.45
2019-03-16T08:31:00.782Z,1000.22
2019-03-16T08:35:57.762Z,1000.30
2019-03-16T08:40:53.116Z,1000.15
2019-03-16T08:45:48.638Z,1000.17
2019-03-16T08:50:45.794Z,1000.04
2019-03-16T08:55:40.953Z,1000.08
2019-03-16T09:00:37.027Z,1000.03
2019-03-16T09:05:32.809Z,999.89
2019-03-16T09:10:28.724Z,999.78
2019-03-16T09:15:24.740Z,999.85
2019-03-16T09:20:20.224Z,999.83
2019-03-16T09:25:17.597Z,999.70
2019-03-16T09:30:14.111Z,999.62
2019-03-16T09:35:10.456Z,999.68
2019-03-16T09:40:07.180Z,999.46
2019-03-16T09:45:02.855Z,999.63
2019-03-16T09:49:58.910Z,999.49
2019-03-16T09:54:54.907Z,999.57
2019-03-16T09:59:50.792Z,999.45
2019-03-16T10:04:47.791Z,999.52
2019-03-16T10:09:43.298Z,999.40
2019-03-16T10:14:39.229Z,999.48
2019-03-16T10:19:35.703Z,999.33
2019-03-16T10:24:31.437Z,999.20
2019-03-16T10:29:27.272Z,999.25
2019-03-16T10:34:23.053Z,999.27
2019-03-16T10:39:18.814Z,999.16
2019-03-16T10:44:15.392Z,999.20
2019-03-16T10:49:11.084Z,999.22
2019-03-16T10:54:07.075Z,999.17
2019-03-16T10:59:02.858Z,999.25
2019-03-16T11:03:59.033Z,999.14
2019-03-16T11:08:54.567Z,999.18
2019-03-16T11:13:50.592Z,999.25
2019-03-16T11:18:46.419Z,999.21
2019-03-16T11:23:42.607Z,999.15
2019-03-16T11:28:38.467Z,999.19
2019-03-16T11:33:34.334Z,999.12
2019-03-16T11:38:31.128Z,999.14
2019-03-16T11:43:27.771Z,998.98
2019-03-16T11:48:24.883Z,998.92
2019-03-16T11:53:20.515Z,998.89
2019-03-16T11:58:16.395Z,998.88
2019-03-16T12:03:12.280Z,998.70
2019-03-16T12:08:08.077Z,998.62
2019-03-16T12:13:16.505Z,998.63
2019-03-16T12:18:03.139Z,998.59
2019-03-16T12:22:59.130Z,998.49
2019-03-16T12:27:54.995Z,998.51
2019-03-16T12:32:51.738Z,998.42
2019-03-16T12:37:47.403Z,998.20
2019-03-16T12:42:43.266Z,998.28
2019-03-16T12:47:38.912Z,998.23
2019-03-16T12:52:35.780Z,998.16
2019-03-16T12:57:31.719Z,998.04
2019-03-16T13:02:27.752Z,998.08
2019-03-16T13:07:23.518Z,997.92
2019-03-16T13:12:21.401Z,997.98
2019-03-16T13:17:16.900Z,998.14
2019-03-16T13:22:12.776Z,998.23
2019-03-16T13:27:08.803Z,998.27
2019-03-16T13:32:05.342Z,998.10
2019-03-16T13:37:01.833Z,998.18
2019-03-16T13:41:58.325Z,997.99
2019-03-16T13:46:54.151Z,998.08
2019-03-16T13:51:49.779Z,998.15
2019-03-16T13:56:45.269Z,998.03
2019-03-16T14:01:41.844Z,997.87
2019-03-16T14:06:37.240Z,997.98
2019-03-16T14:11:32.970Z,997.69
2019-03-16T14:16:28.847Z,997.90
2019-03-16T14:21:25.013Z,997.76
2019-03-16T14:26:20.800Z,997.83
2019-03-16T14:31:16.219Z,997.63
2019-03-16T14:36:12.499Z,997.63
2019-03-16T14:41:08.922Z,997.75
2019-03-16T14:46:05.582Z,997.65
2019-03-16T14:51:01.738Z,997.32
2019-03-16T14:55:57.585Z,997.27
2019-03-16T15:00:54.333Z,997.25
2019-03-16T15:05:51.188Z,997.33
2019-03-16T15:10:47.112Z,997.07
2019-03-16T15:15:44.131Z,997.06
2019-03-16T15:20:39.786Z,997.05
2019-03-16T15:25:35.798Z,997.03
2019-03-16T15:30:31.265Z,997.17
2019-03-16T15:35:27.374Z,997.02
2019-03-16T15:40:23.262Z,996.94
2019-03-16T15:45:18.763Z,996.97
2019-03-16T15:50:14.297Z,997.02
2019-03-16T15:55:10.502Z,997.00
2019-03-16T16:00:06.245Z,997.08
2019-03-16T16:05:02.997Z,996.89
2019-03-16T16:09:58.634Z,996.93
2019-03-16T16:14:54.435Z,996.86
2019-03-16T16:19:49.988Z,996.75
2019-03-16T16:24:45.539Z,996.88
2019-03-16T16:29:42.254Z,996.83
2019-03-16T16:34:38.692Z,996.73
2019-03-16T16:39:33.973Z,996.64
2019-03-16T16:44:29.739Z,996.57
2019-03-16T16:49:25.221Z,996.56
2019-03-16T16:54:21.927Z,996.45
2019-03-16T16:59:17.661Z,996.39
2019-03-16T17:04:13.489Z,996.50
2019-03-16T17:09:11.292Z,996.43
2019-03-16T17:14:07.604Z,996.40
2019-03-16T17:19:02.930Z,996.44
2019-03-16T17:23:58.721Z,996.38
2019-03-16T17:28:54.348Z,996.27
2019-03-16T17:33:49.913Z,996.26
2019-03-16T17:38:46.798Z,996.21
2019-03-16T17:43:42.172Z,996.14
2019-03-16T17:48:38.141Z,996.24
2019-03-16T17:53:34.347Z,996.43
2019-03-16T17:58:29.967Z,996.37
2019-03-16T18:03:26.404Z,996.38
2019-03-16T18:08:23.282Z,996.37
2019-03-16T18:13:18.564Z,996.31
2019-03-16T18:18:15.556Z,996.20
2019-03-16T18:23:11.933Z,996.19
2019-03-16T18:28:07.909Z,996.30
2019-03-16T18:33:03.542Z,996.21
2019-03-16T18:37:59.276Z,996.23
2019-03-16T18:42:54.933Z,996.22
2019-03-16T18:47:50.728Z,996.22
2019-03-16T18:52:46.402Z,996.24
2019-03-16T18:57:42.011Z,996.07
2019-03-16T19:02:37.705Z,996.01
2019-03-16T19:07:33.604Z,995.80
2019-03-16T19:12:30.880Z,995.83
2019-03-16T19:17:26.333Z,995.85
2019-03-16T19:22:22.115Z,995.83
2019-03-16T19:27:19.235Z,995.73
2019-03-16T19:32:17.039Z,995.86
2019-03-16T19:37:13.389Z,995.69
2019-03-16T19:42:09.153Z,995.67
2019-03-16T19:47:04.981Z,995.71
2019-03-16T19:52:00.648Z,995.79
2019-03-16T19:56:56.230Z,995.60
2019-03-16T20:01:51.948Z,995.46
2019-03-16T20:06:47.923Z,995.40
2019-03-16T20:11:44.937Z,995.30
2019-03-16T20:16:40.836Z,995.31
2019-03-16T20:21:36.681Z,995.14
2019-03-16T20:26:32.410Z,995.03
2019-03-16T20:31:28.675Z,995.03
2019-03-16T20:36:24.874Z,994.82
2019-03-16T20:41:20.269Z,994.80
2019-03-16T20:46:17.167Z,994.90
2019-03-16T20:51:13.949Z,994.82
2019-03-16T20:56:10.509Z,994.82
2019-03-16T21:01:07.269Z,994.72
2019-03-16T21:06:02.710Z,994.71
2019-03-16T21:10:58.748Z,994.50
2019-03-16T21:15:54.900Z,994.46
2019-03-16T21:20:51.697Z,994.31
2019-03-16T21:25:47.092Z,994.29
2019-03-16T21:30:43.585Z,994.30
2019-03-16T21:35:39.740Z,994.28
2019-03-16T21:40:36.467Z,994.28
2019-03-16T21:45:32.844Z,994.29
2019-03-16T21:50:28.227Z,994.29
2019-03-16T21:55:23.938Z,994.14
2019-03-16T22:00:19.743Z,994.09
2019-03-16T22:05:15.483Z,994.11
2019-03-16T22:10:12.252Z,993.96
2019-03-16T22:15:07.692Z,993.86
2019-03-16T22:20:04.359Z,993.81
2019-03-16T22:25:00.278Z,993.73
2019-03-16T22:29:56.412Z,993.75
2019-03-16T22:34:52.255Z,993.57
2019-03-16T22:39:48.001Z,993.55
2019-03-16T22:44:43.938Z,993.30
2019-03-16T22:49:40.631Z,993.32
2019-03-16T22:54:36.277Z,993.11
2019-03-16T22:59:31.704Z,993.18
2019-03-16T23:04:28.499Z,993.16
2019-03-16T23:09:24.194Z,992.99
2019-03-16T23:14:20.106Z,993.02
2019-03-16T23:19:16.470Z,992.92
2019-03-16T23:24:13.248Z,992.84
2019-03-16T23:29:08.735Z,992.71
2019-03-16T23:34:05.270Z,992.66
2019-03-16T23:39:02.402Z,992.69
2019-03-16T23:43:58.612Z,992.66
2019-03-16T23:48:55.123Z,992.42
2019-03-16T23:53:50.643Z,992.52
2019-03-16T23:58:47.434Z,992.48
